GW1092 Weather Reports


Display with metric or nautical units.
time (UTC)temp
F
wind
direction
speed
MPH
gust
MPH
rain 1hr
in
rain 24hr
in
rain mn
in
humidity
%
barometer
mb
20221209170900 54 356 2.0 2.0 0.00 0.00 0.00 67 1022.5
20221209170400 54 327 2.0 2.0 0.00 0.00 0.00 68 1022.7
20221209165859 52 96 0.0 0.0 0.00 0.00 0.00 72 1022.7
20221209165358 51 327 1.0 2.0 0.00 0.00 0.00 71 1023.0
20221209164858 52 343 1.0 1.0 0.00 0.00 0.00 71 1022.7
20221209164357 52 309 0.0 0.0 0.00 0.00 0.00 71 1022.7
20221209163857 52 318 3.0 3.0 0.00 0.00 0.00 71 1023.0
20221209163355 51 24 3.0 3.0 0.00 0.00 0.00 71 1022.9
20221209162854 52 328 3.0 6.0 0.00 0.00 0.00 70 1023.0
20221209162353 53 331 3.0 5.0 0.00 0.00 0.00 69 1023.1
20221209161851 52 338 4.0 6.0 0.00 0.00 0.00 70 1023.1
20221209161350 52 284 5.0 6.0 0.00 0.00 0.00 70 1023.3
20221209160849 52 324 1.0 1.0 0.00 0.00 0.00 71 1023.2
20221209160349 51 350 2.0 3.0 0.00 0.00 0.00 71 1023.0
20221209155847 51 325 1.0 1.0 0.00 0.00 0.00 72 1023.4
20221209155347 52 1 5.0 7.0 0.00 0.00 0.00 70 1023.2
20221209154847 51 351 1.0 1.0 0.00 0.00 0.00 71 1023.4
20221209154346 51 356 3.0 6.0 0.00 0.00 0.00 71 1023.2
20221209153845 52 335 2.0 2.0 0.00 0.00 0.00 71 1023.5
20221209153345 51 3 1.0 1.0 0.00 0.00 0.00 71 1023.4
20221209152844 52 271 2.0 2.0 0.00 0.00 0.00 70 1023.5
20221209152344 52 288 5.0 8.0 0.00 0.00 0.00 70 1023.4
20221209151843 51 332 0.0 1.0 0.00 0.00 0.00 71 1023.4
20221209151341 51 110 0.0 0.0 0.00 0.00 0.00 72 1023.4
20221209150841 51 58 3.0 6.0 0.00 0.00 0.00 71 1023.3
20221209150339 51 342 1.0 1.0 0.00 0.00 0.00 70 1023.1
20221209145837 51 323 3.0 5.0 0.00 0.00 0.00 70 1023.4
20221209145337 51 347 2.0 3.0 0.00 0.00 0.00 70 1023.4
20221209144836 51 339 2.0 3.0 0.00 0.00 0.00 71 1023.2
20221209144334 51 340 0.0 1.0 0.00 0.00 0.00 70 1023.5
20221209143834 51 2 0.0 0.0 0.00 0.00 0.00 71 1023.4
20221209143334 51 347 1.0 1.0 0.00 0.00 0.00 71 1023.3
20221209142832 51 337 1.0 1.0 0.00 0.00 0.00 71 1023.3
20221209142332 51 331 2.0 3.0 0.00 0.00 0.00 71 1023.2
20221209141832 51 338 0.0 2.0 0.00 0.00 0.00 72 1023.2
20221209141331 51 323 1.0 2.0 0.00 0.00 0.00 71 1023.3
20221209140830 51 324 1.0 1.0 0.00 0.00 0.00 71 1023.2
20221209140329 51 327 0.0 1.0 0.00 0.00 0.00 72 1023.1
20221209135828 50 19 0.0 1.0 0.00 0.00 0.00 72 1023.1
20221209135327 50 21 4.0 7.0 0.00 0.00 0.00 70 1023.0
20221209134828 51 331 2.0 2.0 0.00 0.00 0.00 71 1023.3
20221209134326 50 356 3.0 5.0 0.00 0.00 0.00 71 1023.2
20221209133824 48 352 1.0 1.0 0.00 0.00 0.00 73 1023.1
20221209133324 48 340 2.0 3.0 0.00 0.00 0.00 74 1023.0
20221209132822 48 324 0.0 1.0 0.00 0.00 0.00 74 1022.9
20221209132322 48 346 0.0 0.0 0.00 0.00 0.00 74 1022.9
20221209131820 49 341 0.0 0.0 0.00 0.00 0.00 73 1022.8
20221209131318 49 332 0.0 1.0 0.00 0.00 0.00 73 1022.8
20221209130817 49 340 0.0 0.0 0.00 0.00 0.00 74 1022.9
20221209130317 49 347 0.0 1.0 0.00 0.00 0.00 74 1022.7
20221209125815 48 335 1.0 1.0 0.00 0.00 0.00 74 1022.8
20221209125315 48 326 0.0 0.0 0.00 0.00 0.00 75 1022.9
20221209124815 48 334 1.0 3.0 0.00 0.00 0.00 75 1022.9
20221209124313 48 63 0.0 1.0 0.00 0.00 0.00 76 1022.9
20221209123811 47 331 0.0 0.0 0.00 0.00 0.00 76 1023.1
20221209123310 47 332 0.0 0.0 0.00 0.00 0.00 76 1022.9
20221209122809 47 347 0.0 0.0 0.00 0.00 0.00 75 1022.8
20221209122308 47 24 0.0 1.0 0.00 0.00 0.00 76 1022.9
20221209121807 47 321 1.0 1.0 0.00 0.00 0.00 76 1022.6
20221209121307 47 335 0.0 0.0 0.00 0.00 0.00 76 1022.7
20221209120806 47 335 0.0 0.0 0.00 0.00 0.00 76 1022.5
20221209120306 47 331 0.0 0.0 0.00 0.00 0.00 76 1022.6
20221209115805 47 5 0.0 0.0 0.00 0.00 0.00 76 1022.6
20221209115306 47 26 0.0 1.0 0.00 0.00 0.00 77 1022.6
20221209114804 47 328 0.0 0.0 0.00 0.00 0.00 76 1022.8
20221209114304 47 357 0.0 0.0 0.00 0.00 0.00 76 1022.8
20221209113802 47 355 0.0 0.0 0.00 0.00 0.00 75 1022.7
20221209113259 47 336 0.0 0.0 0.00 0.00 0.00 75 1022.7
20221209112758 48 343 0.0 0.0 0.00 0.00 0.00 75 1022.5
20221209112256 48 347 1.0 1.0 0.00 0.00 0.00 75 1022.7
20221209111755 48 6 1.0 2.0 0.00 0.00 0.00 75 1022.5
20221209111254 48 1 0.0 0.0 0.00 0.00 0.00 75 1022.4
20221209110754 48 359 0.0 0.0 0.00 0.00 0.00 75 1022.0
20221209110252 48 335 2.0 2.0 0.00 0.00 0.00 75 1022.5
20221209105752 48 321 1.0 1.0 0.00 0.00 0.00 75 1022.4
20221209105252 48 329 0.0 0.0 0.00 0.00 0.00 76 1022.3
20221209104750 48 353 2.0 2.0 0.00 0.00 0.00 76 1022.5
20221209104250 49 333 0.0 1.0 0.00 0.00 0.00 75 1022.4
20221209103748 49 57 1.0 1.0 0.00 0.00 0.00 75 1022.5
20221209103246 49 355 1.0 2.0 0.00 0.00 0.00 75 1022.4
20221209102746 49 10 0.0 0.0 0.00 0.00 0.00 76 1022.2
20221209102242 49 266 0.0 1.0 0.00 0.00 0.00 75 1022.4
20221209101740 49 336 0.0 0.0 0.00 0.00 0.00 75 1022.4
20221209101238 48 338 0.0 1.0 0.00 0.00 0.00 74 1022.4
20221209100736 49 333 0.0 0.0 0.00 0.00 0.00 74 1022.3
20221209100236 48 347 1.0 1.0 0.00 0.00 0.00 75 1022.2
20221209095735 49 334 0.0 1.0 0.00 0.00 0.00 75 1022.1
20221209095234 49 335 0.0 0.0 0.00 0.00 0.00 75 1022.3
20221209094733 49 333 1.0 1.0 0.00 0.00 0.00 75 1022.2
20221209094231 49 339 0.0 1.0 0.00 0.00 0.00 75 1022.1
20221209093729 49 332 1.0 1.0 0.00 0.00 0.00 75 1022.3
20221209093229 49 348 0.0 0.0 0.00 0.00 0.00 76 1022.2
20221209092728 49 334 0.0 0.0 0.00 0.00 0.00 76 1022.2
20221209092227 49 332 0.0 1.0 0.00 0.00 0.00 75 1022.4
20221209091726 49 307 0.0 1.0 0.00 0.00 0.00 76 1022.3
20221209091224 49 324 1.0 1.0 0.00 0.00 0.00 77 1022.4
20221209090722 49 341 1.0 2.0 0.00 0.00 0.00 77 1022.1
20221209090221 49 309 0.0 1.0 0.00 0.00 0.00 78 1022.2
20221209085721 49 340 0.0 1.0 0.00 0.00 0.00 78 1022.2
20221209085220 50 54 0.0 1.0 0.00 0.00 0.00 77 1022.2
20221209084719 50 328 0.0 1.0 0.00 0.00 0.00 77 1022.2
20221209084217 50 12 0.0 1.0 0.00 0.00 0.00 77 1022.2
20221209083717 50 355 0.0 0.0 0.00 0.00 0.00 77 1022.3
20221209083216 50 28 0.0 0.0 0.00 0.00 0.00 78 1022.5
20221209082714 50 332 1.0 2.0 0.00 0.00 0.00 78 1022.4
20221209082213 50 335 0.0 0.0 0.00 0.00 0.00 78 1022.3
20221209081713 50 334 0.0 2.0 0.00 0.00 0.00 79 1022.1
20221209081211 50 331 0.0 0.0 0.00 0.00 0.00 80 1022.4
20221209080711 50 18 0.0 1.0 0.00 0.00 0.00 80 1022.5
20221209080211 50 310 1.0 1.0 0.00 0.00 0.00 81 1022.4
20221209075709 50 323 0.0 1.0 0.00 0.00 0.00 81 1022.5
20221209075210 50 328 0.0 1.0 0.00 0.00 0.00 81 1022.5
20221209074709 50 329 0.0 0.0 0.00 0.00 0.00 81 1022.4
20221209074209 50 74 0.0 1.0 0.00 0.00 0.00 81 1022.5
20221209073708 50 332 0.0 0.0 0.00 0.00 0.00 81 1022.3
20221209073206 51 352 0.0 0.0 0.00 0.00 0.00 81 1022.3
20221209072705 51 335 1.0 1.0 0.00 0.00 0.00 82 1022.4
20221209072205 51 353 0.0 0.0 0.00 0.00 0.00 82 1022.6
20221209071704 51 348 0.0 1.0 0.00 0.00 0.00 82 1022.4
20221209071202 51 346 0.0 1.0 0.00 0.00 0.00 82 1022.5
20221209070700 51 324 0.0 0.0 0.00 0.00 0.00 82 1022.3
20221209070200 51 56 0.0 1.0 0.00 0.00 0.00 83 1022.2
20221209065659 51 8 1.0 1.0 0.00 0.00 0.00 83 1022.4
20221209065157 51 15 1.0 2.0 0.00 0.00 0.00 83 1022.4
20221209064656 51 1 0.0 1.0 0.00 0.00 0.00 83 1022.6
20221209064154 51 338 0.0 0.0 0.00 0.00 0.00 83 1022.7
20221209063652 51 20 0.0 1.0 0.00 0.00 0.00 83 1022.5
20221209063152 51 351 0.0 1.0 0.00 0.00 0.00 82 1022.3
20221209062651 51 328 0.0 1.0 0.00 0.00 0.00 82 1022.4
20221209062151 52 346 0.0 1.0 0.00 0.00 0.00 82 1022.4
20221209061650 52 356 0.0 1.0 0.00 0.00 0.00 81 1022.2
20221209061150 52 338 0.0 0.0 0.00 0.00 0.00 81 1022.4
20221209060648 52 21 1.0 1.0 0.00 0.00 0.00 80 1022.4
20221209060146 52 340 1.0 1.0 0.00 0.00 0.00 80 1022.5
20221209055646 52 328 1.0 2.0 0.00 0.00 0.00 80 1022.6
20221209055144 52 306 0.0 0.0 0.00 0.00 0.00 80 1022.6
20221209054644 52 340 0.0 0.0 0.00 0.00 0.00 79 1022.9
20221209054144 52 327 1.0 1.0 0.00 0.00 0.00 80 1022.9
20221209053644 52 337 0.0 0.0 0.00 0.00 0.00 80 1022.5
20221209053142 52 354 0.0 0.0 0.00 0.00 0.00 80 1022.5
20221209052641 52 337 0.0 0.0 0.00 0.00 0.00 81 1022.7
20221209052139 52 331 0.0 0.0 0.00 0.00 0.00 81 1022.4
20221209051637 52 331 0.0 0.0 0.00 0.00 0.00 81 1022.5
20221209051137 52 329 0.0 0.0 0.00 0.00 0.00 81 1022.6
20221209050637 52 331 0.0 1.0 0.00 0.00 0.00 81 1022.3
20221209050136 52 337 0.0 0.0 0.00 0.00 0.00 81 1022.3
20221209045636 52 339 0.0 0.0 0.00 0.00 0.00 81 1022.5
20221209045135 52 332 0.0 1.0 0.00 0.00 0.00 81 1022.7
20221209044633 52 340 0.0 1.0 0.00 0.00 0.00 82 1022.5
20221209044132 52 315 0.0 0.0 0.00 0.00 0.00 82 1022.4
20221209043632 52 354 0.0 1.0 0.00 0.00 0.00 83 1022.8
20221209043131 52 354 0.0 1.0 0.00 0.00 0.00 84 1022.7
20221209042630 52 329 1.0 1.0 0.00 0.00 0.00 84 1022.4
20221209042129 52 2 0.0 0.0 0.00 0.00 0.00 84 1022.5
20221209041628 52 346 0.0 0.0 0.00 0.00 0.00 84 1022.2
20221209041127 52 337 0.0 0.0 0.00 0.00 0.00 84 1022.1
20221209040626 52 348 0.0 0.0 0.00 0.00 0.00 84 1022.0
20221209040126 52 332 0.0 0.0 0.00 0.00 0.00 84 1022.4
20221209035624 52 341 0.0 1.0 0.00 0.00 0.00 84 1022.5
20221209035124 52 330 1.0 2.0 0.00 0.00 0.00 84 1022.7
20221209034624 52 336 1.0 2.0 0.00 0.00 0.00 84 1022.7
20221209034124 52 334 0.0 0.0 0.00 0.00 0.00 84 1022.5
20221209033622 52 337 0.0 0.0 0.00 0.00 0.00 84 1022.2
20221209033120 52 336 1.0 1.0 0.00 0.00 0.00 84 1022.3
20221209032620 52 336 0.0 1.0 0.00 0.00 0.00 84 1022.4
20221209032118 52 337 0.0 1.0 0.00 0.00 0.00 84 1022.2
20221209031617 52 337 0.0 1.0 0.00 0.00 0.00 84 1022.1
20221209031116 52 339 0.0 0.0 0.00 0.00 0.00 84 1022.1
20221209030616 52 338 0.0 0.0 0.00 0.00 0.00 84 1022.0
20221209030115 52 343 0.0 0.0 0.00 0.00 0.00 84 1022.1
20221209025615 52 338 1.0 1.0 0.00 0.00 0.00 84 1022.5
20221209025115 52 334 0.0 0.0 0.00 0.00 0.00 84 1022.1
20221209024615 52 327 0.0 1.0 0.00 0.00 0.00 84 1022.4
20221209024114 52 337 0.0 0.0 0.00 0.00 0.00 84 1022.0
20221209023614 52 343 0.0 0.0 0.00 0.00 0.00 85 1022.1
20221209023114 52 341 1.0 1.0 0.00 0.00 0.00 85 1022.1
20221209022613 52 340 0.0 0.0 0.00 0.00 0.00 85 1022.0
20221209022112 52 14 0.0 0.0 0.00 0.00 0.00 85 1022.1
20221209021611 52 325 0.0 0.0 0.00 0.00 0.00 85 1022.2
20221209021110 52 331 0.0 0.0 0.00 0.00 0.00 85 1022.4
20221209020609 52 338 0.0 0.0 0.00 0.00 0.00 85 1022.3
20221209020108 52 334 0.0 0.0 0.00 0.00 0.00 85 1022.1
20221209015607 52 337 0.0 0.0 0.00 0.00 0.00 85 1022.1
20221209015106 52 345 0.0 0.0 0.00 0.00 0.00 85 1022.5
20221209014605 52 332 0.0 0.0 0.00 0.00 0.00 85 1022.5
20221209014105 52 339 0.0 0.0 0.00 0.00 0.00 85 1022.4
20221209013604 52 335 0.0 0.0 0.00 0.00 0.00 85 1022.5
20221209013104 52 327 0.0 0.0 0.00 0.00 0.00 85 1022.7
20221209012603 52 330 0.0 0.0 0.00 0.00 0.00 85 1022.6
20221209012102 52 337 0.0 0.0 0.00 0.00 0.00 85 1022.8
20221209011600 52 333 0.0 0.0 0.00 0.00 0.00 85 1022.7
20221209011100 52 324 0.0 0.0 0.00 0.00 0.00 85 1022.6
20221209010600 52 343 0.0 0.0 0.00 0.00 0.00 85 1022.8
20221209010058 52 11 1.0 1.0 0.00 0.00 0.00 85 1022.7
20221209005556 52 25 1.0 1.0 0.00 0.00 0.00 85 1022.6
20221209005054 52 336 0.0 0.0 0.00 0.00 0.00 85 1022.4
20221209004552 52 345 0.0 0.0 0.00 0.00 0.00 85 1022.5
20221209004052 52 336 0.0 0.0 0.00 0.00 0.00 85 1022.3
20221209003550 52 335 1.0 1.0 0.00 0.00 0.00 85 1022.4
20221209003049 52 336 0.0 0.0 0.00 0.00 0.00 85 1022.6
20221209002549 52 331 0.0 1.0 0.00 0.00 0.00 85 1022.5
20221209002048 52 331 0.0 0.0 0.00 0.00 0.00 85 1022.6
20221209001548 52 336 0.0 0.0 0.00 0.00 0.00 85 1022.4
20221209001046 52 329 0.0 1.0 0.00 0.00 0.00 85 1022.5
20221209000545 52 334 0.0 0.0 0.00 0.00 0.00 84 1022.1
20221209000045 52 334 0.0 0.0 0.00 0.00 0.00 84 1022.5
20221208235544 52 336 1.0 2.0 0.00 0.00 0.00 84 1022.5
20221208235043 52 334 2.0 2.0 0.00 0.00 0.00 84 1022.5
20221208234543 52 339 0.0 1.0 0.00 0.00 0.00 83 1022.3
20221208234042 53 346 0.0 0.0 0.00 0.00 0.00 83 1022.2
20221208233540 53 336 0.0 0.0 0.00 0.00 0.00 83 1022.1
20221208233038 53 327 0.0 0.0 0.00 0.00 0.00 82 1022.2
20221208232538 53 22 0.0 0.0 0.00 0.00 0.00 82 1022.4
20221208232038 53 329 0.0 0.0 0.00 0.00 0.00 82 1022.4
20221208231535 53 336 0.0 0.0 0.00 0.00 0.00 82 1022.3
20221208231035 53 325 2.0 2.0 0.00 0.00 0.00 82 1022.6
20221208230535 53 325 1.0 1.0 0.00 0.00 0.00 82 1022.5
20221208230033 53 16 0.0 0.0 0.00 0.00 0.00 81 1022.5
20221208225531 53 325 0.0 1.0 0.00 0.00 0.00 81 1022.6
20221208225030 54 337 0.0 0.0 0.00 0.00 0.00 81 1022.6
20221208224528 54 334 1.0 2.0 0.00 0.00 0.00 81 1022.6
20221208224028 54 339 0.0 1.0 0.00 0.00 0.00 81 1022.6
20221208223527 54 329 3.0 5.0 0.00 0.00 0.00 82 1022.8
20221208223026 54 313 2.0 2.0 0.00 0.00 0.00 82 1022.3
20221208222526 54 323 1.0 1.0 0.00 0.00 0.00 82 1021.9
20221208222024 54 28 0.0 0.0 0.00 0.00 0.00 82 1022.4
20221208221523 54 336 0.0 1.0 0.00 0.00 0.00 82 1022.3
20221208221022 54 2 0.0 0.0 0.00 0.00 0.00 82 1022.1
20221208220522 54 343 1.0 1.0 0.00 0.00 0.00 82 1021.9
20221208220022 54 336 1.0 1.0 0.00 0.00 0.00 83 1021.8
20221208215522 54 331 0.0 0.0 0.00 0.00 0.00 83 1021.9
20221208215021 54 54 0.0 0.0 0.00 0.00 0.00 83 1021.6
20221208214521 54 335 0.0 0.0 0.00 0.00 0.00 83 1021.9
20221208214020 54 320 0.0 1.0 0.00 0.00 0.00 83 1021.9
20221208213519 54 81 1.0 2.0 0.00 0.00 0.00 83 1021.9
20221208213018 54 325 0.0 1.0 0.00 0.00 0.00 83 1021.9
20221208212517 54 301 2.0 6.0 0.00 0.00 0.00 84 1022.0
20221208212017 54 337 0.0 0.0 0.00 0.00 0.00 85 1021.6
20221208211517 54 4 0.0 0.0 0.00 0.00 0.00 85 1022.0
20221208211016 54 46 0.0 0.0 0.00 0.00 0.00 86 1022.2
20221208210514 54 4 0.0 0.0 0.00 0.00 0.00 86 1022.2
20221208210014 55 331 1.0 1.0 0.00 0.00 0.00 86 1022.0
20221208205513 55 337 0.0 0.0 0.00 0.00 0.00 86 1022.0
20221208205012 55 356 1.0 1.0 0.00 0.00 0.00 87 1022.0
20221208204511 55 357 0.0 0.0 0.00 0.00 0.00 86 1021.8
20221208204011 55 324 0.0 0.0 0.00 0.00 0.00 86 1022.2
20221208203510 55 353 0.0 1.0 0.00 0.00 0.00 86 1022.0
20221208203008 55 342 0.0 0.0 0.00 0.00 0.00 86 1022.3
20221208202506 55 349 0.0 0.0 0.00 0.00 0.00 86 1022.2
20221208202006 55 331 0.0 0.0 0.00 0.00 0.00 86 1022.2
20221208201505 55 326 1.0 1.0 0.00 0.00 0.00 85 1022.6
20221208201004 56 325 0.0 0.0 0.00 0.00 0.00 85 1022.1
20221208200504 56 337 0.0 1.0 0.00 0.00 0.00 84 1022.2
20221208200002 56 331 2.0 2.0 0.00 0.00 0.00 84 1022.4
20221208195502 56 13 0.0 1.0 0.00 0.00 0.00 84 1022.4
20221208195000 56 318 0.0 0.0 0.00 0.00 0.00 84 1022.4
20221208194459 57 110 0.0 1.0 0.00 0.00 0.00 84 1022.3
20221208193959 57 339 2.0 2.0 0.00 0.00 0.00 83 1022.1
20221208193457 57 336 0.0 0.0 0.00 0.00 0.00 83 1022.2
20221208192955 57 324 0.0 0.0 0.00 0.00 0.00 82 1022.0
20221208192453 57 308 0.0 0.0 0.00 0.00 0.00 81 1021.9
20221208191952 58 315 1.0 1.0 0.00 0.00 0.00 80 1022.1
20221208191451 59 36 1.0 1.0 0.00 0.00 0.00 79 1022.3
20221208190951 59 337 0.0 1.0 0.00 0.00 0.00 80 1022.4
20221208190451 59 338 0.0 1.0 0.00 0.00 0.00 79 1022.3
20221208185950 59 321 0.0 0.0 0.00 0.00 0.00 78 1022.0
20221208185449 59 324 0.0 0.0 0.00 0.00 0.00 79 1022.3
20221208184948 58 336 0.0 0.0 0.00 0.00 0.00 80 1022.2
20221208184447 59 341 4.0 5.0 0.00 0.00 0.00 79 1022.3
20221208183946 59 47 0.0 0.0 0.00 0.00 0.00 79 1022.2
20221208183446 59 354 0.0 1.0 0.00 0.00 0.00 79 1022.5
20221208182945 59 21 0.0 0.0 0.00 0.00 0.00 78 1022.2
20221208182444 60 18 0.0 0.0 0.00 0.00 0.00 78 1022.6
20221208181943 60 356 0.0 0.0 0.00 0.00 0.00 78 1022.8
20221208181442 60 3 0.0 0.0 0.00 0.00 0.00 78 1022.7
20221208180942 59 337 1.0 1.0 0.00 0.00 0.00 78 1022.8
20221208180441 59 356 2.0 3.0 0.00 0.00 0.00 78 1022.8
20221208175941 59 352 2.0 2.0 0.00 0.00 0.00 78 1022.8
20221208175440 60 328 0.0 0.0 0.00 0.00 0.00 77 1022.9
20221208174939 61 2 1.0 1.0 0.00 0.00 0.00 75 1022.7
20221208174436 61 329 3.0 5.0 0.00 0.00 0.00 75 1022.7
20221208173936 61 37 0.0 0.0 0.00 0.00 0.00 76 1022.6
20221208173435 60 40 0.0 1.0 0.00 0.00 0.00 77 1022.7
20221208172935 60 109 0.0 1.0 0.00 0.00 0.00 76 1022.7
20221208172432 61 301 4.0 5.0 0.00 0.00 0.00 75 1022.9
20221208171931 61 22 0.0 1.0 0.00 0.00 0.00 76 1023.0
20221208171430 62 329 2.0 2.0 0.00 0.00 0.00 73 1022.6